createdAt,value
2018-03-27T00:01:19.307Z,77.40
2018-03-27T00:04:22.479Z,75.40
2018-03-27T00:07:26.412Z,73.67
2018-03-27T00:10:30.313Z,74.13
2018-03-27T00:13:33.480Z,73.40
2018-03-27T00:16:36.643Z,73.07
2018-03-27T00:19:40.577Z,70.80
2018-03-27T00:22:44.534Z,71.07
2018-03-27T00:25:47.681Z,72.03
2018-03-27T00:29:02.726Z,69.57
2018-03-27T00:32:17.833Z,69.17
2018-03-27T00:35:32.838Z,65.90
2018-03-27T00:38:47.866Z,66.23
2018-03-27T00:45:36.165Z,63.95
2018-03-27T00:48:39.346Z,59.93
2018-03-27T00:51:42.494Z,59.70
2018-03-27T00:54:46.431Z,58.27
2018-03-27T00:57:50.338Z,58.67
2018-03-27T01:00:54.283Z,57.57
2018-03-27T01:03:58.197Z,57.73
2018-03-27T01:07:02.140Z,55.67
2018-03-27T01:10:05.325Z,53.43
2018-03-27T01:13:09.247Z,52.87
2018-03-27T01:16:12.426Z,52.77
2018-03-27T01:19:15.568Z,53.10
2018-03-27T01:22:18.742Z,49.27
2018-03-27T01:25:21.916Z,50.07
2018-03-27T01:28:25.053Z,49.27
2018-03-27T01:31:28.222Z,47.30
2018-03-27T01:34:32.157Z,47.57
2018-03-27T01:37:35.352Z,47.30
2018-03-27T01:40:39.309Z,46.83
2018-03-27T01:43:42.481Z,47.20
2018-03-27T01:46:45.650Z,46.90
2018-03-27T01:49:48.791Z,49.10
2018-03-27T01:52:51.958Z,45.33
2018-03-27T01:55:55.130Z,44.33
2018-03-27T01:58:59.050Z,43.07
2018-03-27T02:02:03.013Z,43.27
2018-03-27T02:05:06.165Z,43.20
2018-03-27T02:08:09.339Z,42.10
2018-03-27T02:11:17.959Z,42.20
2018-03-27T02:14:26.558Z,40.30
2018-03-27T02:17:35.303Z,41.23
2018-03-27T02:20:44.907Z,38.50
2018-03-27T02:23:48.077Z,40.33
2018-03-27T02:26:52.019Z,38.57
2018-03-27T02:29:55.916Z,38.97
2018-03-27T02:32:59.097Z,37.93
2018-03-27T02:36:02.287Z,37.37
2018-03-27T02:39:05.453Z,35.67
2018-03-27T02:42:08.581Z,36.57
2018-03-27T02:45:12.514Z,35.57
2018-03-27T02:48:15.642Z,35.80
2018-03-27T02:51:18.756Z,35.43
2018-03-27T02:54:21.877Z,34.67
2018-03-27T02:57:25.008Z,34.13
2018-03-27T03:00:28.115Z,32.70
2018-03-27T03:03:31.244Z,33.53
2018-03-27T03:06:35.130Z,34.00
2018-03-27T03:09:38.265Z,32.37
2018-03-27T03:12:41.498Z,32.40
2018-03-27T03:15:45.370Z,32.77
2018-03-27T03:18:48.491Z,30.83
2018-03-27T03:21:51.598Z,32.07
2018-03-27T03:24:54.729Z,31.03
2018-03-27T03:27:58.617Z,30.27
2018-03-27T03:31:01.736Z,29.63
2018-03-27T03:34:05.002Z,29.03
2018-03-27T03:37:08.109Z,29.87
2018-03-27T03:40:11.238Z,28.90
2018-03-27T03:43:14.361Z,28.07
2018-03-27T03:46:17.461Z,28.17
2018-03-27T03:49:20.585Z,28.60
2018-03-27T03:52:23.695Z,27.17
2018-03-27T03:55:26.825Z,26.73
2018-03-27T03:58:29.961Z,27.00
2018-03-27T04:01:33.056Z,26.97
2018-03-27T04:04:36.990Z,25.53
2018-03-27T04:07:40.861Z,26.23
2018-03-27T04:10:43.980Z,24.67
2018-03-27T04:13:47.101Z,25.57
2018-03-27T04:16:50.202Z,25.07
2018-03-27T04:19:53.376Z,24.37
2018-03-27T04:22:57.209Z,24.77
2018-03-27T04:26:00.329Z,24.80
2018-03-27T04:29:03.470Z,24.67
2018-03-27T04:32:07.362Z,24.50
2018-03-27T04:35:10.478Z,23.70
2018-03-27T04:38:13.571Z,23.30
2018-03-27T04:41:16.697Z,21.57
2018-03-27T04:44:19.846Z,22.90
2018-03-27T04:47:23.711Z,21.87
2018-03-27T04:50:26.857Z,21.70
2018-03-27T04:53:29.947Z,21.40
2018-03-27T04:56:33.077Z,21.10
2018-03-27T04:59:36.201Z,22.20
2018-03-27T05:02:40.058Z,21.47
2018-03-27T05:05:43.172Z,20.53
2018-03-27T05:08:46.262Z,20.50
2018-03-27T05:11:49.385Z,19.73
2018-03-27T05:14:52.506Z,20.50
2018-03-27T05:17:55.614Z,19.60
2018-03-27T05:20:58.729Z,19.97
2018-03-27T05:24:01.970Z,19.90
2018-03-27T05:27:05.094Z,18.80
2018-03-27T05:30:08.999Z,18.97
2018-03-27T05:33:12.100Z,19.07
2018-03-27T05:36:15.216Z,18.67
2018-03-27T05:39:18.309Z,18.47
2018-03-27T05:42:21.430Z,19.17
2018-03-27T05:45:24.529Z,18.80
2018-03-27T05:48:27.646Z,18.03
2018-03-27T05:51:30.768Z,17.30
2018-03-27T05:54:34.660Z,16.90
2018-03-27T05:57:37.792Z,17.10
2018-03-27T06:00:40.893Z,17.10
2018-03-27T06:03:44.014Z,16.77
2018-03-27T06:06:47.913Z,16.43
2018-03-27T06:09:51.014Z,17.17
2018-03-27T06:12:54.137Z,16.60
2018-03-27T06:15:57.238Z,16.87
2018-03-27T06:19:00.375Z,16.07
2018-03-27T06:22:04.276Z,15.97
2018-03-27T06:25:07.407Z,15.63
2018-03-27T06:28:10.534Z,15.40
2018-03-27T06:31:14.404Z,16.13
2018-03-27T06:34:17.578Z,14.90
2018-03-27T06:37:21.438Z,14.80
2018-03-27T06:40:24.533Z,14.70
2018-03-27T06:43:27.658Z,14.93
2018-03-27T06:46:30.760Z,14.60
2018-03-27T06:49:33.881Z,13.97
2018-03-27T06:52:37.037Z,13.90
2018-03-27T06:55:40.900Z,63.20
2018-03-27T06:58:44.019Z,60.33
2018-03-27T07:01:47.113Z,57.10
2018-03-27T07:04:50.319Z,56.27
2018-03-27T07:07:53.412Z,47.40
2018-03-27T07:10:56.604Z,43.03
2018-03-27T07:13:59.797Z,41.53
2018-03-27T07:17:03.747Z,40.03
2018-03-27T07:20:06.942Z,35.53
2018-03-27T07:23:10.086Z,34.50
2018-03-27T07:26:13.193Z,30.83
2018-03-27T07:29:16.325Z,26.73
2018-03-27T07:32:19.435Z,32.60
2018-03-27T07:35:22.834Z,57.23
2018-03-27T07:38:25.997Z,62.93
2018-03-27T07:41:29.877Z,131.70
2018-03-27T07:44:33.049Z,165.93
2018-03-27T07:47:36.194Z,108.53
2018-03-27T07:50:39.293Z,102.47
2018-03-27T07:53:42.457Z,91.20
2018-03-27T07:56:45.561Z,258.77
2018-03-27T07:59:49.453Z,300.70
2018-03-27T08:02:52.609Z,294.80
2018-03-27T08:05:55.729Z,144.67
2018-03-27T08:08:58.871Z,150.30
2018-03-27T08:12:01.987Z,176.03
2018-03-27T08:15:05.142Z,135.77
2018-03-27T08:18:08.266Z,119.27
2018-03-27T08:21:11.399Z,125.10
2018-03-27T08:24:14.604Z,118.40
2018-03-27T08:27:18.424Z,113.40
2018-03-27T08:30:21.567Z,113.50
2018-03-27T08:33:24.679Z,103.93
2018-03-27T08:36:27.842Z,101.53
2018-03-27T08:39:30.957Z,97.67
2018-03-27T08:42:34.069Z,97.10
2018-03-27T08:45:37.218Z,95.37
2018-03-27T08:48:40.354Z,92.23
2018-03-27T08:51:43.482Z,89.77
2018-03-27T08:54:46.606Z,89.73
2018-03-27T08:57:49.711Z,87.17
2018-03-27T09:00:52.850Z,83.77
2018-03-27T09:03:55.947Z,85.43
2018-03-27T09:06:59.194Z,82.10
2018-03-27T09:10:03.098Z,78.93
2018-03-27T09:13:06.213Z,79.03
2018-03-27T09:16:10.135Z,77.10
2018-03-27T09:19:13.229Z,77.50
2018-03-27T09:22:17.122Z,74.57
2018-03-27T09:25:20.256Z,76.07
2018-03-27T09:28:23.364Z,70.83
2018-03-27T09:31:26.486Z,71.23
2018-03-27T09:34:29.593Z,73.47
2018-03-27T09:37:32.716Z,72.40
2018-03-27T09:40:36.606Z,66.57
2018-03-27T09:43:39.733Z,65.77
2018-03-27T09:46:42.866Z,66.53
2018-03-27T09:49:46.729Z,64.57
2018-03-27T09:52:49.845Z,63.87
2018-03-27T09:55:52.970Z,61.60
2018-03-27T09:58:56.085Z,64.00
2018-03-27T10:01:59.214Z,62.03
2018-03-27T10:05:03.082Z,59.50
2018-03-27T10:08:06.272Z,58.23
2018-03-27T10:11:09.417Z,60.40
2018-03-27T10:14:12.522Z,59.63
2018-03-27T10:17:15.638Z,56.90
2018-03-27T10:20:18.733Z,57.27
2018-03-27T10:23:21.861Z,56.17
2018-03-27T10:26:25.021Z,55.30
2018-03-27T10:29:28.130Z,54.57
2018-03-27T10:32:31.259Z,52.27
2018-03-27T10:35:34.373Z,51.47
2018-03-27T10:38:37.510Z,52.83
2018-03-27T10:41:41.558Z,52.60
2018-03-27T10:44:44.667Z,50.83
2018-03-27T10:47:47.789Z,50.60
2018-03-27T10:50:51.746Z,50.07
2018-03-27T10:53:54.866Z,48.77
2018-03-27T10:56:57.995Z,50.77
2018-03-27T11:00:01.093Z,48.77
2018-03-27T11:03:04.232Z,48.97
2018-03-27T11:06:07.339Z,47.80
2018-03-27T11:09:10.696Z,47.10
2018-03-27T11:12:14.564Z,47.00
2018-03-27T11:15:17.672Z,46.23
2018-03-27T11:18:20.798Z,46.13
2018-03-27T11:21:24.700Z,44.27
2018-03-27T11:24:27.820Z,44.43
2018-03-27T11:27:30.960Z,42.40
2018-03-27T11:30:34.082Z,43.23
2018-03-27T11:33:37.275Z,43.07
2018-03-27T11:36:40.484Z,43.37
2018-03-27T11:39:44.372Z,42.43
2018-03-27T11:42:47.516Z,41.93
2018-03-27T11:45:51.394Z,41.93
2018-03-27T11:48:54.521Z,41.03
2018-03-27T11:51:57.645Z,40.17
2018-03-27T11:55:01.543Z,37.37
2018-03-27T11:58:04.690Z,39.80
2018-03-27T12:01:07.894Z,39.57
2018-03-27T12:04:11.796Z,39.43
2018-03-27T12:07:14.890Z,38.87
2018-03-27T12:10:18.014Z,39.43
2018-03-27T12:13:21.138Z,45.23
2018-03-27T12:16:25.032Z,54.60
2018-03-27T12:19:28.158Z,55.40
2018-03-27T12:22:31.255Z,63.87
2018-03-27T12:25:34.382Z,79.80
2018-03-27T12:28:37.503Z,99.00
2018-03-27T12:31:41.461Z,101.37
2018-03-27T12:34:45.322Z,112.60
2018-03-27T12:37:48.430Z,123.63
2018-03-27T12:40:51.683Z,123.50
2018-03-27T12:43:54.803Z,117.10
2018-03-27T12:46:57.946Z,127.33
2018-03-27T12:50:01.073Z,127.10
2018-03-27T12:53:04.180Z,127.50
2018-03-27T12:56:07.311Z,127.00
2018-03-27T12:59:11.205Z,118.83
2018-03-27T13:02:14.346Z,121.00
2018-03-27T13:05:18.243Z,117.83
2018-03-27T13:08:22.115Z,175.47
2018-03-27T13:11:25.245Z,280.70
2018-03-27T13:14:28.354Z,305.37
2018-03-27T13:17:31.490Z,294.87
2018-03-27T13:20:34.625Z,271.27
2018-03-27T13:23:38.498Z,256.10
2018-03-27T13:26:41.626Z,234.23
2018-03-27T13:29:44.738Z,219.03
2018-03-27T13:32:47.876Z,203.30
2018-03-27T13:35:51.781Z,185.30
2018-03-27T13:38:54.950Z,172.57
2018-03-27T13:41:58.047Z,150.53
2018-03-27T13:45:01.154Z,136.17
2018-03-27T13:48:04.351Z,130.57
2018-03-27T13:51:07.451Z,116.23
2018-03-27T13:54:11.329Z,126.13
2018-03-27T13:57:14.458Z,127.20
2018-03-27T14:00:17.591Z,116.27
2018-03-27T14:03:21.479Z,101.80
2018-03-27T14:06:24.674Z,93.17
2018-03-27T14:09:27.791Z,86.43
2018-03-27T14:12:30.914Z,81.53
2018-03-27T14:15:34.836Z,78.57
2018-03-27T14:18:38.162Z,69.17
2018-03-27T14:21:41.382Z,64.20
2018-03-27T14:24:44.515Z,64.07
2018-03-27T14:27:47.644Z,60.63
2018-03-27T14:30:50.825Z,55.77
2018-03-27T14:33:53.967Z,53.30
2018-03-27T14:36:57.089Z,50.40
2018-03-27T14:40:00.195Z,49.00
2018-03-27T14:43:03.556Z,46.83
2018-03-27T14:46:07.419Z,44.83
2018-03-27T14:49:10.551Z,43.93
2018-03-27T14:52:13.708Z,42.27
2018-03-27T14:55:16.807Z,37.60
2018-03-27T14:58:20.694Z,36.43
2018-03-27T15:01:23.790Z,66.97
2018-03-27T15:04:26.918Z,67.40
2018-03-27T15:07:30.041Z,63.63
2018-03-27T15:10:34.032Z,57.30
2018-03-27T15:13:37.171Z,50.53
2018-03-27T15:16:40.269Z,54.33
2018-03-27T15:19:43.477Z,51.13
2018-03-27T15:22:47.393Z,45.10
2018-03-27T15:25:50.487Z,41.60
2018-03-27T15:28:53.594Z,33.80
2018-03-27T15:31:56.702Z,32.80
2018-03-27T15:34:59.826Z,27.50
2018-03-27T15:38:03.264Z,22.20
2018-03-27T15:41:06.407Z,17.90
2018-03-27T15:44:09.614Z,15.50
2018-03-27T15:47:12.806Z,14.97
2018-03-27T15:50:16.692Z,13.07
2018-03-27T15:53:19.831Z,13.97
2018-03-27T15:56:23.701Z,12.87
2018-03-27T15:59:26.836Z,12.63
2018-03-27T16:02:29.948Z,12.40
2018-03-27T16:05:33.082Z,11.40
2018-03-27T16:08:36.960Z,11.33
2018-03-27T16:11:40.080Z,11.00
2018-03-27T16:14:43.211Z,10.93
2018-03-27T16:17:46.320Z,10.70
2018-03-27T16:20:49.447Z,10.90
2018-03-27T16:23:53.313Z,10.33
2018-03-27T16:26:56.466Z,11.67
2018-03-27T16:29:59.619Z,11.20
2018-03-27T16:33:02.804Z,12.97
2018-03-27T16:36:06.833Z,13.67
2018-03-27T16:39:09.985Z,13.30
2018-03-27T16:42:13.184Z,12.10
2018-03-27T16:45:16.314Z,13.03
2018-03-27T16:48:19.418Z,12.63
2018-03-27T16:51:22.541Z,12.70
2018-03-27T16:54:25.670Z,11.80
2018-03-27T16:57:29.545Z,11.33
2018-03-27T17:00:32.742Z,12.03
2018-03-27T17:03:35.986Z,11.20
2018-03-27T17:06:39.138Z,10.70
2018-03-27T17:09:57.917Z,10.47
2018-03-27T17:13:01.790Z,11.23
2018-03-27T17:16:04.960Z,10.43
2018-03-27T17:19:08.099Z,11.60
2018-03-27T17:22:11.226Z,26.43
2018-03-27T17:25:14.345Z,48.40
2018-03-27T17:28:17.504Z,67.83
2018-03-27T17:31:20.695Z,74.73
2018-03-27T17:34:24.581Z,76.03
2018-03-27T17:37:27.730Z,73.63
2018-03-27T17:40:31.636Z,74.37
2018-03-27T17:43:35.569Z,74.67
2018-03-27T17:46:38.754Z,73.27
2018-03-27T17:49:41.856Z,71.83
2018-03-27T17:52:44.985Z,71.10
2018-03-27T17:55:48.129Z,71.13
2018-03-27T17:58:51.234Z,68.83
2018-03-27T18:01:54.370Z,65.70
2018-03-27T18:04:57.485Z,66.60
2018-03-27T18:08:00.627Z,64.73
2018-03-27T18:11:03.801Z,62.60
2018-03-27T18:14:06.901Z,62.57
2018-03-27T18:17:10.021Z,60.73
2018-03-27T18:20:13.114Z,59.80
2018-03-27T18:23:16.242Z,60.07
2018-03-27T18:26:19.465Z,57.63
2018-03-27T18:29:22.602Z,57.17
2018-03-27T18:32:25.752Z,56.10
2018-03-27T18:35:28.882Z,54.60
2018-03-27T18:38:32.014Z,56.00
2018-03-27T18:41:35.155Z,53.80
2018-03-27T18:44:38.280Z,53.03
2018-03-27T18:47:41.419Z,54.30
2018-03-27T18:50:44.530Z,51.40
2018-03-27T18:53:47.696Z,49.87
2018-03-27T18:56:50.821Z,50.23
2018-03-27T18:59:53.921Z,49.73
2018-03-27T19:02:57.045Z,48.57
2018-03-27T19:06:00.154Z,48.13
2018-03-27T19:09:03.286Z,48.37
2018-03-27T19:12:06.432Z,46.57
2018-03-27T19:15:11.019Z,46.33
2018-03-27T19:18:14.152Z,45.80
2018-03-27T19:21:17.264Z,45.33
2018-03-27T19:24:20.407Z,44.33
2018-03-27T19:27:23.510Z,42.33
2018-03-27T19:30:26.646Z,42.70
2018-03-27T19:33:29.771Z,42.17
2018-03-27T19:36:32.945Z,91.57
2018-03-27T19:39:36.076Z,144.43
2018-03-27T19:42:39.252Z,178.20
2018-03-27T19:45:42.403Z,212.97
2018-03-27T19:48:45.534Z,229.97
2018-03-27T19:51:48.642Z,320.37
2018-03-27T19:54:51.774Z,311.87
2018-03-27T19:57:54.889Z,312.63
2018-03-27T20:00:58.782Z,317.13
2018-03-27T20:04:01.923Z,310.97
2018-03-27T20:07:05.807Z,307.90
2018-03-27T20:10:08.947Z,291.67
2018-03-27T20:13:12.848Z,279.80
2018-03-27T20:16:15.971Z,251.60
2018-03-27T20:19:19.876Z,319.67
2018-03-27T20:22:22.990Z,337.70
2018-03-27T20:25:26.132Z,352.20
2018-03-27T20:28:29.245Z,343.17
2018-03-27T20:31:32.406Z,326.70
2018-03-27T20:34:35.564Z,327.00
2018-03-27T20:37:38.736Z,318.43
2018-03-27T20:40:41.861Z,310.87
2018-03-27T20:43:45.794Z,301.13
2018-03-27T20:46:50.164Z,291.63
2018-03-27T20:49:53.316Z,290.80
2018-03-27T20:52:56.471Z,279.80
2018-03-27T20:55:59.701Z,284.97
2018-03-27T20:59:02.836Z,274.27
2018-03-27T21:02:05.989Z,268.73
2018-03-27T21:05:09.098Z,271.60
2018-03-27T21:08:12.307Z,256.40
2018-03-27T21:11:15.450Z,260.70
2018-03-27T21:14:18.696Z,251.90
2018-03-27T21:17:21.902Z,251.37
2018-03-27T21:20:25.009Z,230.43
2018-03-27T21:23:28.146Z,198.10
2018-03-27T21:26:31.314Z,187.10
2018-03-27T21:29:34.426Z,185.23
2018-03-27T21:32:38.340Z,180.50
2018-03-27T21:35:41.450Z,170.70
2018-03-27T21:38:44.579Z,157.97
2018-03-27T21:41:47.716Z,155.97
2018-03-27T21:44:50.828Z,147.43
2018-03-27T21:47:53.968Z,139.77
2018-03-27T21:50:57.086Z,135.77
2018-03-27T21:54:00.217Z,132.13
2018-03-27T21:57:03.357Z,129.03
2018-03-27T22:00:07.328Z,122.20
2018-03-27T22:03:10.486Z,116.97
2018-03-27T22:06:14.370Z,118.50
2018-03-27T22:09:17.526Z,112.97
2018-03-27T22:12:20.627Z,113.80
2018-03-27T22:15:24.539Z,116.20
2018-03-27T22:18:27.677Z,111.40
2018-03-27T22:21:30.786Z,107.00
2018-03-27T22:24:33.933Z,102.47
2018-03-27T22:27:37.048Z,103.97
2018-03-27T22:30:40.174Z,96.37
2018-03-27T22:33:43.297Z,97.27
2018-03-27T22:36:47.178Z,93.30
2018-03-27T22:39:50.303Z,89.23
2018-03-27T22:42:53.457Z,82.30
2018-03-27T22:45:56.575Z,77.00
2018-03-27T22:49:00.802Z,76.97
2018-03-27T22:52:03.894Z,72.97
2018-03-27T22:55:07.796Z,71.97
2018-03-27T22:58:10.897Z,66.83
2018-03-27T23:01:14.020Z,66.93
2018-03-27T23:04:17.914Z,64.60
2018-03-27T23:07:21.014Z,61.97
2018-03-27T23:10:24.134Z,59.10
2018-03-27T23:13:27.237Z,57.47
2018-03-27T23:16:30.387Z,55.60
2018-03-27T23:19:33.512Z,55.67
2018-03-27T23:22:36.603Z,54.20
2018-03-27T23:25:40.500Z,50.90
2018-03-27T23:28:43.617Z,49.67
2018-03-27T23:31:46.743Z,47.73
2018-03-27T23:34:50.639Z,49.37
2018-03-27T23:37:53.755Z,47.93
2018-03-27T23:40:56.909Z,44.67
2018-03-27T23:44:00.012Z,45.00
2018-03-27T23:47:03.254Z,46.77
2018-03-27T23:50:06.435Z,43.60
2018-03-27T23:53:10.272Z,44.17
2018-03-27T23:56:13.401Z,40.13
2018-03-27T23:59:16.511Z,39.60
